SLCB/CBB METAR and TAF weather

Enter ICAO airport designator
Station Type Date Time Source
SLCB METAR 2019/10/23 07:00 UTC NOAA

SLCB 230700Z 12006KT 9999 FEW033 16/07 Q1021


Station Type Date Time Source
SLCB Decoded METAR 2019/10/23 07:00 UTC NOAA

Cochabamba, Bolivia (SLCB) 17-25S 066-11W 2570M
Oct 23, 2019 - 03:00 AM EDT / 2019.10.23 0700 UTC
Wind: from the ESE (120 degrees) at 7 MPH (6 KT):0
Visibility: greater than 7 mile(s):0
Sky conditions: mostly clear
Temperature: 60 F (16 C)
Dew Point: 44 F (7 C)
Relative Humidity: 55%
Pressure (altimeter): 30.15 in. Hg (1021 hPa)
ob: SLCB 230700Z 12006KT 9999 FEW033 16/07 Q1021
cycle: 7

Station Type Date Time Source
SLCB TAF 2019/10/23 06:51 UTC NOAA

TAF TAF SLCB 230400Z 2306/2406 00000KT 9999 NSC TX31/2319Z TN13/2311Z
BECMG 2314/2316 24010KT FEW030
BECMG 2402/2404 00000KT NSC

Example: see airport list